CYDC

Princeton Airport

Town of Princeton, British Columbia, Canada
METAR CYDC 250000Z 18008KT 150V230 25SM FEW290 BKN330 24/M09 A3009 RMK CI2CI3 CONTRAILS SLP192 DENSITY ALT 3700FT
Observed Flight Rules
Apr-25 @ 00:00 UTC (37 minutes ago) Visual Flight Rules
Wind Visibility Clouds
180° at 8 knots 25 miles
  • Few at 29,000' AGL
  • Broken at 33,000' AGL
Temperatures Readings
Current 24°C / 75°F
Dewpoint -9°C / 16°F
Humidity 10%
Altimeter 30.09" Hg
Pressure 1019.2 hPa
Elevation 700
METAR CYDC 250000Z 18008KT 150V230 25SM FEW290 BKN330 24/M09 A3009 RMK CI2CI3 CONTRAILS SLP192 DENSITY ALT 3700FT
Observed Flight Rules
Apr-25 @ 00:00 UTC
(37 minutes ago)
VFR
Wind Visibility
180° at 8 knots 25 miles
Clouds
  • Few at 29,000' AGL
  • Broken at 33,000' AGL
Temperature Dewpoint
24°C / 75°F -9°C / 16°F
Humidity Altimeter Pressure
10% 30.09" Hg 1019.2 hPa